sensor_id;sensor_type;location;lat;lon;timestamp;pressure;altitude;pressure_sealevel;temperature;humidity
4133;BME280;2080;51.038;7.008;2023-05-19T00:01:56;47762.25;;;-142.53;74.64
4133;BME280;2080;51.038;7.008;2023-05-19T00:04:26;47737.22;;;-142.53;74.78
4133;BME280;2080;51.038;7.008;2023-05-19T00:06:52;47754.53;;;-142.53;75.21
4133;BME280;2080;51.038;7.008;2023-05-19T00:09:18;47758.41;;;-142.53;76.09
4133;BME280;2080;51.038;7.008;2023-05-19T00:11:46;47764.16;;;-142.53;76.39
4133;BME280;2080;51.038;7.008;2023-05-19T00:14:12;47783.44;;;-142.53;76.50
4133;BME280;2080;51.038;7.008;2023-05-19T00:16:38;47764.16;;;-142.53;77.72
4133;BME280;2080;51.038;7.008;2023-05-19T00:19:06;47768.03;;;-142.53;77.54
4133;BME280;2080;51.038;7.008;2023-05-19T00:21:34;47771.88;;;-142.53;76.74
4133;BME280;2080;51.038;7.008;2023-05-19T00:24:02;47773.81;;;-142.53;77.54
4133;BME280;2080;51.038;7.008;2023-05-19T00:26:32;47768.03;;;-142.53;78.08
4133;BME280;2080;51.038;7.008;2023-05-19T00:28:57;47771.88;;;-142.53;79.00
4133;BME280;2080;51.038;7.008;2023-05-19T00:31:23;47739.13;;;-142.53;78.55
4133;BME280;2080;51.038;7.008;2023-05-19T00:33:48;47783.44;;;-142.53;78.73
4133;BME280;2080;51.038;7.008;2023-05-19T00:36:14;47783.44;;;-142.53;79.40
4133;BME280;2080;51.038;7.008;2023-05-19T00:38:41;47748.75;;;-142.53;79.44
4133;BME280;2080;51.038;7.008;2023-05-19T00:41:07;47756.47;;;-142.53;79.37
4133;BME280;2080;51.038;7.008;2023-05-19T00:43:32;47748.75;;;-142.53;79.38
4133;BME280;2080;51.038;7.008;2023-05-19T00:46:05;47733.34;;;-142.53;80.03
4133;BME280;2080;51.038;7.008;2023-05-19T00:48:31;47756.47;;;-142.53;80.38
4133;BME280;2080;51.038;7.008;2023-05-19T00:50:58;47739.13;;;-142.53;82.26
4133;BME280;2080;51.038;7.008;2023-05-19T00:53:29;47779.59;;;-142.53;82.65
4133;BME280;2080;51.038;7.008;2023-05-19T00:55:55;47768.03;;;-142.53;84.91
4133;BME280;2080;51.038;7.008;2023-05-19T00:58:21;47810.41;;;-142.53;84.74
4133;BME280;2080;51.038;7.008;2023-05-19T01:00:48;47779.59;;;-142.53;85.89
4133;BME280;2080;51.038;7.008;2023-05-19T01:03:18;47779.59;;;-142.53;86.41
4133;BME280;2080;51.038;7.008;2023-05-19T01:05:44;47810.41;;;-142.53;87.75
4133;BME280;2080;51.038;7.008;2023-05-19T01:08:09;47808.47;;;-142.53;86.15
4133;BME280;2080;51.038;7.008;2023-05-19T01:10:38;47764.16;;;-142.53;86.44
4133;BME280;2080;51.038;7.008;2023-05-19T01:13:04;47868.19;;;-142.53;86.79
4133;BME280;2080;51.038;7.008;2023-05-19T01:15:34;47771.88;;;-142.53;87.47
4133;BME280;2080;51.038;7.008;2023-05-19T01:18:04;47764.16;;;-142.53;87.74
4133;BME280;2080;51.038;7.008;2023-05-19T01:20:41;47804.63;;;-142.53;89.36
4133;BME280;2080;51.038;7.008;2023-05-19T01:23:27;47773.81;;;-142.53;89.62
4133;BME280;2080;51.038;7.008;2023-05-19T01:26:18;47800.78;;;-142.53;90.01
4133;BME280;2080;51.038;7.008;2023-05-19T01:31:58;47760.31;;;-142.53;90.74
4133;BME280;2080;51.038;7.008;2023-05-19T01:34:25;47802.69;;;-142.53;91.20
4133;BME280;2080;51.038;7.008;2023-05-19T01:36:53;47795.00;;;-142.53;89.14
4133;BME280;2080;51.038;7.008;2023-05-19T01:39:19;47748.75;;;-142.53;89.54
4133;BME280;2080;51.038;7.008;2023-05-19T01:41:45;47802.69;;;-142.53;89.59
4133;BME280;2080;51.038;7.008;2023-05-19T01:44:11;47775.72;;;-142.53;90.65
4133;BME280;2080;51.038;7.008;2023-05-19T01:46:40;47764.16;;;-142.53;91.18
4133;BME280;2080;51.038;7.008;2023-05-19T01:49:06;47791.13;;;-142.53;92.82
4133;BME280;2080;51.038;7.008;2023-05-19T01:51:32;47771.88;;;-142.53;92.26
4133;BME280;2080;51.038;7.008;2023-05-19T01:53:59;47769.94;;;-142.53;92.38
4133;BME280;2080;51.038;7.008;2023-05-19T01:56:33;47756.47;;;-142.53;92.97
4133;BME280;2080;51.038;7.008;2023-05-19T01:59:08;47793.06;;;-142.53;94.63
4133;BME280;2080;51.038;7.008;2023-05-19T02:01:56;47806.53;;;-142.53;95.43
4133;BME280;2080;51.038;7.008;2023-05-19T02:04:43;47814.25;;;-142.53;94.59
4133;BME280;2080;51.038;7.008;2023-05-19T02:07:34;47806.53;;;-142.53;94.24
4133;BME280;2080;51.038;7.008;2023-05-19T02:10:10;47796.91;;;-142.53;93.65
4133;BME280;2080;51.038;7.008;2023-05-19T02:12:41;47802.69;;;-142.53;92.19
4133;BME280;2080;51.038;7.008;2023-05-19T02:15:16;47775.72;;;-142.53;91.50
4133;BME280;2080;51.038;7.008;2023-05-19T02:17:47;47941.38;;;-142.53;92.15
4133;BME280;2080;51.038;7.008;2023-05-19T02:20:16;47775.72;;;-142.53;91.96
4133;BME280;2080;51.038;7.008;2023-05-19T02:22:42;47802.69;;;-142.53;92.71
4133;BME280;2080;51.038;7.008;2023-05-19T02:25:08;47787.28;;;-142.53;92.63
4133;BME280;2080;51.038;7.008;2023-05-19T02:27:36;47775.72;;;-142.53;93.41
4133;BME280;2080;51.038;7.008;2023-05-19T02:30:04;47795.00;;;-142.53;92.88
4133;BME280;2080;51.038;7.008;2023-05-19T02:32:31;47791.13;;;-142.53;95.61
4133;BME280;2080;51.038;7.008;2023-05-19T02:34:56;47802.69;;;-142.53;95.76
4133;BME280;2080;51.038;7.008;2023-05-19T02:37:22;47779.59;;;-142.53;95.42
4133;BME280;2080;51.038;7.008;2023-05-19T02:39:53;47779.59;;;-142.53;94.67
4133;BME280;2080;51.038;7.008;2023-05-19T02:42:18;47802.69;;;-142.53;94.40
4133;BME280;2080;51.038;7.008;2023-05-19T02:44:43;47771.88;;;-142.53;94.78
4133;BME280;2080;51.038;7.008;2023-05-19T02:47:09;47798.84;;;-142.53;94.86
4133;BME280;2080;51.038;7.008;2023-05-19T02:49:34;47783.44;;;-142.53;96.36
4133;BME280;2080;51.038;7.008;2023-05-19T02:52:03;47766.09;;;-142.53;95.79
4133;BME280;2080;51.038;7.008;2023-05-19T02:54:29;47795.00;;;-142.53;96.73
4133;BME280;2080;51.038;7.008;2023-05-19T02:56:55;47787.28;;;-142.53;96.36
4133;BME280;2080;51.038;7.008;2023-05-19T02:59:21;47787.28;;;-142.53;96.78
4133;BME280;2080;51.038;7.008;2023-05-19T03:01:47;47821.94;;;-142.53;95.62
4133;BME280;2080;51.038;7.008;2023-05-19T03:04:12;47791.13;;;-142.53;95.82
4133;BME280;2080;51.038;7.008;2023-05-19T03:06:38;47814.25;;;-142.53;95.81
4133;BME280;2080;51.038;7.008;2023-05-19T03:09:04;47789.22;;;-142.53;97.43
4133;BME280;2080;51.038;7.008;2023-05-19T03:11:31;47800.78;;;-142.53;98.81
4133;BME280;2080;51.038;7.008;2023-05-19T03:13:59;47802.69;;;-142.53;97.29
4133;BME280;2080;51.038;7.008;2023-05-19T03:16:24;47798.84;;;-142.53;95.51
4133;BME280;2080;51.038;7.008;2023-05-19T03:18:52;47802.69;;;-142.53;95.02
4133;BME280;2080;51.038;7.008;2023-05-19T03:21:17;47795.00;;;-142.53;94.31
4133;BME280;2080;51.038;7.008;2023-05-19T03:23:44;47787.28;;;-142.53;94.50
4133;BME280;2080;51.038;7.008;2023-05-19T03:26:11;47821.94;;;-142.53;94.39
4133;BME280;2080;51.038;7.008;2023-05-19T03:28:41;47804.63;;;-142.53;93.56
4133;BME280;2080;51.038;7.008;2023-05-19T03:31:06;47781.50;;;-142.53;93.72
4133;BME280;2080;51.038;7.008;2023-05-19T03:33:31;47787.28;;;-142.53;94.75
4133;BME280;2080;51.038;7.008;2023-05-19T03:35:57;47779.59;;;-142.53;95.33
4133;BME280;2080;51.038;7.008;2023-05-19T03:38:23;47810.41;;;-142.53;95.39
4133;BME280;2080;51.038;7.008;2023-05-19T03:40:48;47793.06;;;-142.53;94.23
4133;BME280;2080;51.038;7.008;2023-05-19T03:43:14;47779.59;;;-142.53;95.16
4133;BME280;2080;51.038;7.008;2023-05-19T03:45:41;47781.50;;;-142.53;95.84
4133;BME280;2080;51.038;7.008;2023-05-19T03:48:09;47752.63;;;-142.53;96.90
4133;BME280;2080;51.038;7.008;2023-05-19T03:50:34;47800.78;;;-142.53;96.47
4133;BME280;2080;51.038;7.008;2023-05-19T03:53:04;47818.09;;;-142.53;96.00
4133;BME280;2080;51.038;7.008;2023-05-19T03:55:32;47806.53;;;-142.53;94.93
4133;BME280;2080;51.038;7.008;2023-05-19T03:58:01;47818.09;;;-142.53;95.27
4133;BME280;2080;51.038;7.008;2023-05-19T04:00:26;47796.91;;;-142.53;94.24
4133;BME280;2080;51.038;7.008;2023-05-19T04:02:52;47802.69;;;-142.53;94.26
4133;BME280;2080;51.038;7.008;2023-05-19T04:05:17;47798.84;;;-142.53;94.61
4133;BME280;2080;51.038;7.008;2023-05-19T04:07:47;47764.16;;;-142.53;94.58
4133;BME280;2080;51.038;7.008;2023-05-19T04:10:12;47754.53;;;-142.53;93.36
4133;BME280;2080;51.038;7.008;2023-05-19T04:12:40;47756.47;;;-142.53;92.48
4133;BME280;2080;51.038;7.008;2023-05-19T04:15:06;47835.44;;;-142.53;91.33
4133;BME280;2080;51.038;7.008;2023-05-19T04:17:34;47775.72;;;-142.53;90.60
4133;BME280;2080;51.038;7.008;2023-05-19T04:20:02;47810.41;;;-142.53;90.46
4133;BME280;2080;51.038;7.008;2023-05-19T04:22:27;47804.63;;;-142.53;90.34
4133;BME280;2080;51.038;7.008;2023-05-19T04:24:52;47804.63;;;-142.53;89.97
4133;BME280;2080;51.038;7.008;2023-05-19T04:27:18;47748.75;;;-142.53;88.30
4133;BME280;2080;51.038;7.008;2023-05-19T04:29:43;47760.31;;;-142.53;88.61
4133;BME280;2080;51.038;7.008;2023-05-19T04:32:12;47806.53;;;-142.53;86.56
4133;BME280;2080;51.038;7.008;2023-05-19T04:34:44;47773.81;;;-142.53;87.15
4133;BME280;2080;51.038;7.008;2023-05-19T04:37:13;47795.00;;;-142.53;88.53
4133;BME280;2080;51.038;7.008;2023-05-19T04:39:40;47748.75;;;-142.53;85.46
4133;BME280;2080;51.038;7.008;2023-05-19T04:42:08;47733.34;;;-142.53;80.87
4133;BME280;2080;51.038;7.008;2023-05-19T04:44:38;47737.22;;;-142.53;77.94
4133;BME280;2080;51.038;7.008;2023-05-19T04:47:10;47741.06;;;-142.53;76.40
4133;BME280;2080;51.038;7.008;2023-05-19T04:49:35;47760.31;;;-142.53;76.66
4133;BME280;2080;51.038;7.008;2023-05-19T04:52:07;47737.22;;;-142.53;76.74
4133;BME280;2080;51.038;7.008;2023-05-19T04:54:37;47739.13;;;-142.53;78.08
4133;BME280;2080;51.038;7.008;2023-05-19T04:57:05;47733.34;;;-142.53;78.06
4133;BME280;2080;51.038;7.008;2023-05-19T04:59:34;47758.41;;;-142.53;79.01
4133;BME280;2080;51.038;7.008;2023-05-19T05:02:00;47771.88;;;-142.53;80.07
4133;BME280;2080;51.038;7.008;2023-05-19T05:04:28;47777.66;;;-142.53;81.13
4133;BME280;2080;51.038;7.008;2023-05-19T05:06:53;47779.59;;;-142.53;80.90
4133;BME280;2080;51.038;7.008;2023-05-19T05:09:19;47721.78;;;-142.53;79.56
4133;BME280;2080;51.038;7.008;2023-05-19T05:11:44;47737.22;;;-142.53;77.59
4133;BME280;2080;51.038;7.008;2023-05-19T05:14:12;47741.06;;;-142.53;74.58
4133;BME280;2080;51.038;7.008;2023-05-19T05:16:38;47706.38;;;-142.53;72.27
4133;BME280;2080;51.038;7.008;2023-05-19T05:19:10;47746.84;;;-142.53;69.73
4133;BME280;2080;51.038;7.008;2023-05-19T05:21:38;47725.66;;;-142.53;68.69
4133;BME280;2080;51.038;7.008;2023-05-19T05:24:07;47746.84;;;-142.53;67.79
4133;BME280;2080;51.038;7.008;2023-05-19T05:26:33;47791.13;;;-142.53;66.25
4133;BME280;2080;51.038;7.008;2023-05-19T05:28:59;47729.50;;;-142.53;66.81
4133;BME280;2080;51.038;7.008;2023-05-19T05:31:25;47725.66;;;-142.53;67.11
4133;BME280;2080;51.038;7.008;2023-05-19T05:33:50;47714.09;;;-142.53;66.90
4133;BME280;2080;51.038;7.008;2023-05-19T05:36:16;47742.97;;;-142.53;65.71
4133;BME280;2080;51.038;7.008;2023-05-19T05:38:41;47762.25;;;-142.53;63.86
4133;BME280;2080;51.038;7.008;2023-05-19T05:41:09;47748.75;;;-142.53;64.02
4133;BME280;2080;51.038;7.008;2023-05-19T05:43:34;47798.84;;;-142.53;64.61
4133;BME280;2080;51.038;7.008;2023-05-19T05:46:00;47729.50;;;-142.53;65.66
4133;BME280;2080;51.038;7.008;2023-05-19T05:48:25;47702.53;;;-142.53;64.73
4133;BME280;2080;51.038;7.008;2023-05-19T05:50:55;47742.97;;;-142.53;65.36
4133;BME280;2080;51.038;7.008;2023-05-19T05:53:21;47721.78;;;-142.53;65.12
4133;BME280;2080;51.038;7.008;2023-05-19T05:55:49;47741.06;;;-142.53;63.67
4133;BME280;2080;51.038;7.008;2023-05-19T05:58:17;47739.13;;;-142.53;63.35
4133;BME280;2080;51.038;7.008;2023-05-19T06:00:44;47710.25;;;-142.53;63.61
4133;BME280;2080;51.038;7.008;2023-05-19T06:03:11;47760.31;;;-142.53;63.22
4133;BME280;2080;51.038;7.008;2023-05-19T06:05:40;47741.06;;;-142.53;62.01
4133;BME280;2080;51.038;7.008;2023-05-19T06:08:06;47737.22;;;-142.53;61.73
4133;BME280;2080;51.038;7.008;2023-05-19T06:10:31;47717.94;;;-142.53;60.18
4133;BME280;2080;51.038;7.008;2023-05-19T06:12:59;47741.06;;;-142.53;59.31
4133;BME280;2080;51.038;7.008;2023-05-19T06:15:25;47744.91;;;-142.53;58.71
4133;BME280;2080;51.038;7.008;2023-05-19T06:17:50;47737.22;;;-142.53;58.88
4133;BME280;2080;51.038;7.008;2023-05-19T06:20:16;47681.34;;;-142.53;56.99
4133;BME280;2080;51.038;7.008;2023-05-19T06:22:42;47756.47;;;-142.53;57.81
4133;BME280;2080;51.038;7.008;2023-05-19T06:25:07;47741.06;;;-142.53;57.57
4133;BME280;2080;51.038;7.008;2023-05-19T06:27:34;47787.28;;;-142.53;56.11
4133;BME280;2080;51.038;7.008;2023-05-19T06:30:02;47773.81;;;-142.53;55.82
4133;BME280;2080;51.038;7.008;2023-05-19T06:32:28;47694.84;;;-142.53;55.52
4133;BME280;2080;51.038;7.008;2023-05-19T06:34:57;47714.09;;;-142.53;54.74
4133;BME280;2080;51.038;7.008;2023-05-19T06:37:27;47731.44;;;-142.53;54.34
4133;BME280;2080;51.038;7.008;2023-05-19T06:39:53;47754.53;;;-142.53;54.17
4133;BME280;2080;51.038;7.008;2023-05-19T06:42:20;47721.78;;;-142.53;53.92
4133;BME280;2080;51.038;7.008;2023-05-19T06:44:54;47698.69;;;-142.53;51.66
4133;BME280;2080;51.038;7.008;2023-05-19T06:47:21;47746.84;;;-142.53;50.88
4133;BME280;2080;51.038;7.008;2023-05-19T06:49:46;47660.16;;;-142.53;49.64
4133;BME280;2080;51.038;7.008;2023-05-19T06:52:15;47710.25;;;-142.53;49.42
4133;BME280;2080;51.038;7.008;2023-05-19T06:54:41;47729.50;;;-142.53;48.39
4133;BME280;2080;51.038;7.008;2023-05-19T06:57:06;47735.28;;;-142.53;47.98
4133;BME280;2080;51.038;7.008;2023-05-19T06:59:34;47723.72;;;-142.53;47.63
4133;BME280;2080;51.038;7.008;2023-05-19T07:02:04;47729.50;;;-142.53;46.88
4133;BME280;2080;51.038;7.008;2023-05-19T07:04:29;47725.66;;;-142.53;47.46
4133;BME280;2080;51.038;7.008;2023-05-19T07:06:57;47821.94;;;-142.53;46.97
4133;BME280;2080;51.038;7.008;2023-05-19T07:09:25;47685.19;;;-142.53;47.11
4133;BME280;2080;51.038;7.008;2023-05-19T07:11:50;47729.50;;;-142.53;46.59
4133;BME280;2080;51.038;7.008;2023-05-19T07:14:15;47721.78;;;-142.53;45.66
4133;BME280;2080;51.038;7.008;2023-05-19T07:16:41;47716.03;;;-142.53;45.63
4133;BME280;2080;51.038;7.008;2023-05-19T07:19:06;47748.75;;;-142.53;45.56
4133;BME280;2080;51.038;7.008;2023-05-19T07:21:34;47742.97;;;-142.53;45.50
4133;BME280;2080;51.038;7.008;2023-05-19T07:23:59;47698.69;;;-142.53;44.45
4133;BME280;2080;51.038;7.008;2023-05-19T07:26:27;47714.09;;;-142.53;45.07
4133;BME280;2080;51.038;7.008;2023-05-19T07:28:55;47721.78;;;-142.53;44.68
4133;BME280;2080;51.038;7.008;2023-05-19T07:31:21;47673.66;;;-142.53;44.28
4133;BME280;2080;51.038;7.008;2023-05-19T07:33:47;47687.13;;;-142.53;43.31
4133;BME280;2080;51.038;7.008;2023-05-19T07:36:12;47706.38;;;-142.53;43.97
4133;BME280;2080;51.038;7.008;2023-05-19T07:38:38;47710.25;;;-142.53;43.14
4133;BME280;2080;51.038;7.008;2023-05-19T07:41:03;47725.66;;;-142.53;42.83
4133;BME280;2080;51.038;7.008;2023-05-19T07:43:28;47721.78;;;-142.53;43.24
4133;BME280;2080;51.038;7.008;2023-05-19T07:45:56;47681.34;;;-142.53;42.69
4133;BME280;2080;51.038;7.008;2023-05-19T07:48:22;47717.94;;;-142.53;42.17
4133;BME280;2080;51.038;7.008;2023-05-19T07:50:50;47714.09;;;-142.53;42.72
4133;BME280;2080;51.038;7.008;2023-05-19T07:53:16;47654.38;;;-142.53;42.52
4133;BME280;2080;51.038;7.008;2023-05-19T07:55:41;47721.78;;;-142.53;41.95
4133;BME280;2080;51.038;7.008;2023-05-19T07:58:09;47690.97;;;-142.53;41.54
4133;BME280;2080;51.038;7.008;2023-05-19T08:00:34;47702.53;;;-142.53;41.27
4133;BME280;2080;51.038;7.008;2023-05-19T08:03:00;47673.66;;;-142.53;40.97
4133;BME280;2080;51.038;7.008;2023-05-19T08:05:26;47719.88;;;-142.53;40.42
4133;BME280;2080;51.038;7.008;2023-05-19T08:07:51;47714.09;;;-142.53;40.33
4133;BME280;2080;51.038;7.008;2023-05-19T08:10:19;47729.50;;;-142.53;39.82
4133;BME280;2080;51.038;7.008;2023-05-19T08:12:44;47690.97;;;-142.53;39.63
4133;BME280;2080;51.038;7.008;2023-05-19T08:15:09;47692.91;;;-142.53;40.11
4133;BME280;2080;51.038;7.008;2023-05-19T08:17:38;47683.28;;;-142.53;39.61
4133;BME280;2080;51.038;7.008;2023-05-19T08:20:06;47694.84;;;-142.53;40.52
4133;BME280;2080;51.038;7.008;2023-05-19T08:22:34;47644.75;;;-142.53;39.08
4133;BME280;2080;51.038;7.008;2023-05-19T08:25:00;47671.72;;;-142.53;39.30
4133;BME280;2080;51.038;7.008;2023-05-19T08:27:28;47702.53;;;-142.53;39.74
4133;BME280;2080;51.038;7.008;2023-05-19T08:29:54;47665.94;;;-142.53;39.51
4133;BME280;2080;51.038;7.008;2023-05-19T08:32:20;47690.97;;;-142.53;38.81
4133;BME280;2080;51.038;7.008;2023-05-19T08:34:47;47664.03;;;-142.53;39.39
4133;BME280;2080;51.038;7.008;2023-05-19T08:37:13;47648.63;;;-142.53;38.73
4133;BME280;2080;51.038;7.008;2023-05-19T08:39:41;47683.28;;;-142.53;38.57
4133;BME280;2080;51.038;7.008;2023-05-19T08:42:06;47658.25;;;-142.53;38.51
4133;BME280;2080;51.038;7.008;2023-05-19T08:44:34;47675.56;;;-142.53;37.46
4133;BME280;2080;51.038;7.008;2023-05-19T08:47:03;47671.72;;;-142.53;37.79
4133;BME280;2080;51.038;7.008;2023-05-19T08:49:42;47652.47;;;-142.53;37.07
4133;BME280;2080;51.038;7.008;2023-05-19T08:52:20;47648.63;;;-142.53;37.15
4133;BME280;2080;51.038;7.008;2023-05-19T08:54:59;47613.94;;;-142.53;35.83
4133;BME280;2080;51.038;7.008;2023-05-19T08:57:33;47637.06;;;-142.53;36.26
4133;BME280;2080;51.038;7.008;2023-05-19T09:00:02;47660.16;;;-142.53;35.64
4133;BME280;2080;51.038;7.008;2023-05-19T09:02:37;47667.88;;;-142.53;35.27
4133;BME280;2080;51.038;7.008;2023-05-19T09:05:05;47610.09;;;-142.53;35.15
4133;BME280;2080;51.038;7.008;2023-05-19T09:07:31;47667.88;;;-142.53;35.37
4133;BME280;2080;51.038;7.008;2023-05-19T09:09:59;47687.13;;;-142.53;35.14
4133;BME280;2080;51.038;7.008;2023-05-19T09:12:25;47633.19;;;-142.53;34.28
4133;BME280;2080;51.038;7.008;2023-05-19T09:14:51;47648.63;;;-142.53;34.53
4133;BME280;2080;51.038;7.008;2023-05-19T09:17:17;47629.34;;;-142.53;33.71
4133;BME280;2080;51.038;7.008;2023-05-19T09:19:46;47640.91;;;-142.53;33.76
4133;BME280;2080;51.038;7.008;2023-05-19T09:22:15;47567.72;;;-142.53;33.81
4133;BME280;2080;51.038;7.008;2023-05-19T09:24:46;47638.97;;;-142.53;33.83
4133;BME280;2080;51.038;7.008;2023-05-19T09:27:14;47640.91;;;-142.53;33.69
4133;BME280;2080;51.038;7.008;2023-05-19T09:29:40;47667.88;;;-142.53;34.14
4133;BME280;2080;51.038;7.008;2023-05-19T09:32:06;47679.44;;;-142.53;34.31
4133;BME280;2080;51.038;7.008;2023-05-19T09:34:32;47754.53;;;-142.53;34.28
4133;BME280;2080;51.038;7.008;2023-05-19T09:36:57;47671.72;;;-142.53;34.21
4133;BME280;2080;51.038;7.008;2023-05-19T09:39:24;47642.84;;;-142.53;33.74
4133;BME280;2080;51.038;7.008;2023-05-19T09:41:55;47629.34;;;-142.53;33.36
4133;BME280;2080;51.038;7.008;2023-05-19T09:44:23;47656.31;;;-142.53;32.60
4133;BME280;2080;51.038;7.008;2023-05-19T09:46:56;47633.19;;;-142.53;33.06
4133;BME280;2080;51.038;7.008;2023-05-19T09:49:24;47683.28;;;-142.53;32.86
4133;BME280;2080;51.038;7.008;2023-05-19T09:51:54;47662.09;;;-142.53;33.08
4133;BME280;2080;51.038;7.008;2023-05-19T09:54:21;47662.09;;;-142.53;32.41
4133;BME280;2080;51.038;7.008;2023-05-19T09:57:00;47660.16;;;-142.53;32.21
4133;BME280;2080;51.038;7.008;2023-05-19T09:59:29;47652.47;;;-142.53;32.19
4133;BME280;2080;51.038;7.008;2023-05-19T10:01:57;47613.94;;;-142.53;32.00
4133;BME280;2080;51.038;7.008;2023-05-19T10:04:24;47596.59;;;-142.53;31.40
4133;BME280;2080;51.038;7.008;2023-05-19T10:06:54;47504.16;;;-142.53;31.43
4133;BME280;2080;51.038;7.008;2023-05-19T10:09:25;47583.13;;;-142.53;31.07
4133;BME280;2080;51.038;7.008;2023-05-19T10:11:55;47583.13;;;-142.53;31.71
4133;BME280;2080;51.038;7.008;2023-05-19T10:14:28;47579.28;;;-142.53;31.28
4133;BME280;2080;51.038;7.008;2023-05-19T10:16:58;47610.09;;;-142.53;30.91
4133;BME280;2080;51.038;7.008;2023-05-19T10:19:26;47610.09;;;-142.53;30.50
4133;BME280;2080;51.038;7.008;2023-05-19T10:21:53;47627.44;;;-142.53;30.08
4133;BME280;2080;51.038;7.008;2023-05-19T10:24:20;47592.75;;;-142.53;30.71
4133;BME280;2080;51.038;7.008;2023-05-19T10:26:59;47617.78;;;-142.53;31.09
4133;BME280;2080;51.038;7.008;2023-05-19T10:29:44;47629.34;;;-142.53;30.88
4133;BME280;2080;51.038;7.008;2023-05-19T10:32:18;47617.78;;;-142.53;31.01
4133;BME280;2080;51.038;7.008;2023-05-19T10:35:27;47656.31;;;-142.53;31.42
4133;BME280;2080;51.038;7.008;2023-05-19T10:43:43;47640.91;;;-142.53;31.34
4133;BME280;2080;51.038;7.008;2023-05-19T10:46:11;47629.34;;;-142.53;31.44
4133;BME280;2080;51.038;7.008;2023-05-19T10:48:36;47627.44;;;-142.53;30.88
4133;BME280;2080;51.038;7.008;2023-05-19T10:51:02;47610.09;;;-142.53;30.82
4133;BME280;2080;51.038;7.008;2023-05-19T10:53:33;47596.59;;;-142.53;30.57
4133;BME280;2080;51.038;7.008;2023-05-19T10:56:01;47633.19;;;-142.53;31.12
4133;BME280;2080;51.038;7.008;2023-05-19T11:01:12;47610.09;;;-142.53;29.95
4133;BME280;2080;51.038;7.008;2023-05-19T11:03:51;47558.09;;;-142.53;30.24
4133;BME280;2080;51.038;7.008;2023-05-19T11:06:29;47629.34;;;-142.53;29.54
4133;BME280;2080;51.038;7.008;2023-05-19T11:11:41;47606.25;;;-142.53;29.10
4133;BME280;2080;51.038;7.008;2023-05-19T11:14:09;47606.25;;;-142.53;29.81
4133;BME280;2080;51.038;7.008;2023-05-19T11:16:35;47613.94;;;-142.53;29.57
4133;BME280;2080;51.038;7.008;2023-05-19T11:19:01;47529.19;;;-142.53;29.26
4133;BME280;2080;51.038;7.008;2023-05-19T11:21:51;47567.72;;;-142.53;29.13
4133;BME280;2080;51.038;7.008;2023-05-19T11:24:54;47598.53;;;-142.53;29.64
4133;BME280;2080;51.038;7.008;2023-05-19T11:27:31;47602.38;;;-142.53;29.34
4133;BME280;2080;51.038;7.008;2023-05-19T11:32:48;47604.31;;;-142.53;30.13
4133;BME280;2080;51.038;7.008;2023-05-19T11:35:16;47625.50;;;-142.53;29.66
4133;BME280;2080;51.038;7.008;2023-05-19T11:37:46;47637.06;;;-142.53;30.04
4133;BME280;2080;51.038;7.008;2023-05-19T11:40:14;47631.28;;;-142.53;29.81
4133;BME280;2080;51.038;7.008;2023-05-19T11:42:39;47594.69;;;-142.53;30.47
4133;BME280;2080;51.038;7.008;2023-05-19T11:45:05;47594.69;;;-142.53;30.35
4133;BME280;2080;51.038;7.008;2023-05-19T11:47:31;47573.50;;;-142.53;29.30
4133;BME280;2080;51.038;7.008;2023-05-19T11:50:02;47590.84;;;-142.53;30.11
4133;BME280;2080;51.038;7.008;2023-05-19T11:52:27;47621.66;;;-142.53;29.95
4133;BME280;2080;51.038;7.008;2023-05-19T11:54:53;47633.19;;;-142.53;30.40
4133;BME280;2080;51.038;7.008;2023-05-19T11:57:21;47633.19;;;-142.53;30.08
4133;BME280;2080;51.038;7.008;2023-05-19T11:59:48;47629.34;;;-142.53;30.39
4133;BME280;2080;51.038;7.008;2023-05-19T12:02:18;47633.19;;;-142.53;30.11
4133;BME280;2080;51.038;7.008;2023-05-19T12:04:47;47621.66;;;-142.53;29.58
4133;BME280;2080;51.038;7.008;2023-05-19T12:07:21;47608.16;;;-142.53;29.62
4133;BME280;2080;51.038;7.008;2023-05-19T12:09:48;47610.09;;;-142.53;29.64
4133;BME280;2080;51.038;7.008;2023-05-19T12:12:17;47583.13;;;-142.53;29.69
4133;BME280;2080;51.038;7.008;2023-05-19T12:14:45;47664.03;;;-142.53;30.28
4133;BME280;2080;51.038;7.008;2023-05-19T12:17:16;47629.34;;;-142.53;30.19
4133;BME280;2080;51.038;7.008;2023-05-19T12:19:42;47596.59;;;-142.53;30.46
4133;BME280;2080;51.038;7.008;2023-05-19T12:22:10;47606.25;;;-142.53;30.72
4133;BME280;2080;51.038;7.008;2023-05-19T12:24:37;47615.88;;;-142.53;30.52
4133;BME280;2080;51.038;7.008;2023-05-19T12:27:09;47621.66;;;-142.53;30.99
4133;BME280;2080;51.038;7.008;2023-05-19T12:29:38;47585.06;;;-142.53;30.21
4133;BME280;2080;51.038;7.008;2023-05-19T12:32:06;47629.34;;;-142.53;30.33
4133;BME280;2080;51.038;7.008;2023-05-19T12:34:34;47575.44;;;-142.53;29.73
4133;BME280;2080;51.038;7.008;2023-05-19T12:37:01;47627.44;;;-142.53;30.28
4133;BME280;2080;51.038;7.008;2023-05-19T12:39:27;47617.78;;;-142.53;29.89
4133;BME280;2080;51.038;7.008;2023-05-19T12:42:00;47615.88;;;-142.53;29.04
4133;BME280;2080;51.038;7.008;2023-05-19T12:44:28;47598.53;;;-142.53;28.94
4133;BME280;2080;51.038;7.008;2023-05-19T12:46:56;47575.44;;;-142.53;28.77
4133;BME280;2080;51.038;7.008;2023-05-19T12:49:22;47644.75;;;-142.53;29.21
4133;BME280;2080;51.038;7.008;2023-05-19T12:51:53;47610.09;;;-142.53;28.72
4133;BME280;2080;51.038;7.008;2023-05-19T12:54:22;47565.78;;;-142.53;28.67
4133;BME280;2080;51.038;7.008;2023-05-19T12:56:49;47544.59;;;-142.53;28.23
4133;BME280;2080;51.038;7.008;2023-05-19T12:59:22;47548.47;;;-142.53;27.57
4133;BME280;2080;51.038;7.008;2023-05-19T13:01:57;47610.09;;;-142.53;28.77
4133;BME280;2080;51.038;7.008;2023-05-19T13:04:28;47594.69;;;-142.53;28.56
4133;BME280;2080;51.038;7.008;2023-05-19T13:06:55;47613.94;;;-142.53;28.67
4133;BME280;2080;51.038;7.008;2023-05-19T13:09:21;47550.38;;;-142.53;28.50
4133;BME280;2080;51.038;7.008;2023-05-19T13:11:46;47581.19;;;-142.53;28.45
4133;BME280;2080;51.038;7.008;2023-05-19T13:14:16;47606.25;;;-142.53;28.04
4133;BME280;2080;51.038;7.008;2023-05-19T13:16:43;47525.34;;;-142.53;27.97
4133;BME280;2080;51.038;7.008;2023-05-19T13:19:11;47613.94;;;-142.53;28.14
4133;BME280;2080;51.038;7.008;2023-05-19T13:21:36;47548.47;;;-142.53;27.93
4133;BME280;2080;51.038;7.008;2023-05-19T13:24:02;47575.44;;;-142.53;27.92